sensor_id;sensor_type;location;lat;lon;timestamp;P1;durP1;ratioP1;P2;durP2;ratioP2
836;SDS011;400;53.550;9.932;2023-06-19T00:01:02;7.63;;;7.13;;
836;SDS011;400;53.550;9.932;2023-06-19T00:03:30;8.40;;;7.20;;
836;SDS011;400;53.550;9.932;2023-06-19T00:05:57;8.70;;;7.00;;
836;SDS011;400;53.550;9.932;2023-06-19T00:08:24;8.83;;;7.13;;
836;SDS011;400;53.550;9.932;2023-06-19T00:10:51;7.57;;;6.97;;
836;SDS011;400;53.550;9.932;2023-06-19T00:13:18;8.13;;;7.50;;
836;SDS011;400;53.550;9.932;2023-06-19T00:15:46;8.17;;;7.43;;
836;SDS011;400;53.550;9.932;2023-06-19T00:18:13;7.93;;;7.27;;
836;SDS011;400;53.550;9.932;2023-06-19T00:20:42;6.97;;;6.57;;
836;SDS011;400;53.550;9.932;2023-06-19T00:23:11;7.87;;;7.17;;
836;SDS011;400;53.550;9.932;2023-06-19T00:31:13;7.70;;;7.10;;
836;SDS011;400;53.550;9.932;2023-06-19T00:33:41;8.53;;;7.83;;
836;SDS011;400;53.550;9.932;2023-06-19T00:36:10;6.97;;;6.37;;
836;SDS011;400;53.550;9.932;2023-06-19T00:38:37;7.60;;;7.10;;
836;SDS011;400;53.550;9.932;2023-06-19T00:41:04;8.00;;;7.40;;
836;SDS011;400;53.550;9.932;2023-06-19T00:43:31;7.73;;;7.17;;
836;SDS011;400;53.550;9.932;2023-06-19T00:46:00;8.57;;;7.97;;
836;SDS011;400;53.550;9.932;2023-06-19T00:48:28;8.03;;;7.43;;
836;SDS011;400;53.550;9.932;2023-06-19T00:50:56;7.50;;;7.00;;
836;SDS011;400;53.550;9.932;2023-06-19T00:53:25;7.40;;;6.70;;
836;SDS011;400;53.550;9.932;2023-06-19T00:55:53;7.70;;;7.00;;
836;SDS011;400;53.550;9.932;2023-06-19T00:58:22;7.40;;;6.90;;
836;SDS011;400;53.550;9.932;2023-06-19T01:00:49;7.40;;;6.90;;
836;SDS011;400;53.550;9.932;2023-06-19T01:03:16;7.75;;;7.25;;
836;SDS011;400;53.550;9.932;2023-06-19T01:05:43;7.90;;;7.40;;
836;SDS011;400;53.550;9.932;2023-06-19T01:08:17;6.93;;;6.53;;
836;SDS011;400;53.550;9.932;2023-06-19T01:11:03;7.70;;;7.20;;
836;SDS011;400;53.550;9.932;2023-06-19T01:13:31;7.77;;;7.20;;
836;SDS011;400;53.550;9.932;2023-06-19T01:16:03;7.83;;;7.30;;
836;SDS011;400;53.550;9.932;2023-06-19T01:18:33;7.90;;;7.30;;
836;SDS011;400;53.550;9.932;2023-06-19T01:21:08;8.27;;;7.57;;
836;SDS011;400;53.550;9.932;2023-06-19T01:23:40;9.10;;;8.40;;
836;SDS011;400;53.550;9.932;2023-06-19T01:26:07;8.40;;;7.67;;
836;SDS011;400;53.550;9.932;2023-06-19T01:28:34;8.47;;;7.90;;
836;SDS011;400;53.550;9.932;2023-06-19T01:31:01;8.70;;;8.20;;
836;SDS011;400;53.550;9.932;2023-06-19T01:33:32;8.50;;;7.90;;
836;SDS011;400;53.550;9.932;2023-06-19T01:35:59;8.47;;;7.73;;
836;SDS011;400;53.550;9.932;2023-06-19T01:38:28;8.23;;;7.73;;
836;SDS011;400;53.550;9.932;2023-06-19T01:40:58;9.00;;;8.30;;
836;SDS011;400;53.550;9.932;2023-06-19T01:43:27;7.83;;;7.23;;
836;SDS011;400;53.550;9.932;2023-06-19T01:45:56;9.00;;;8.40;;
836;SDS011;400;53.550;9.932;2023-06-19T01:48:23;8.40;;;7.87;;
836;SDS011;400;53.550;9.932;2023-06-19T01:50:50;8.00;;;7.40;;
836;SDS011;400;53.550;9.932;2023-06-19T01:53:17;8.37;;;7.70;;
836;SDS011;400;53.550;9.932;2023-06-19T01:55:44;8.10;;;7.60;;
836;SDS011;400;53.550;9.932;2023-06-19T01:58:12;7.97;;;7.37;;
836;SDS011;400;53.550;9.932;2023-06-19T02:00:39;9.00;;;8.30;;
836;SDS011;400;53.550;9.932;2023-06-19T02:03:06;8.37;;;7.53;;
836;SDS011;400;53.550;9.932;2023-06-19T02:05:32;9.13;;;8.43;;
836;SDS011;400;53.550;9.932;2023-06-19T02:08:04;8.70;;;8.20;;
836;SDS011;400;53.550;9.932;2023-06-19T02:10:31;7.90;;;7.40;;
836;SDS011;400;53.550;9.932;2023-06-19T02:12:58;8.90;;;8.30;;
836;SDS011;400;53.550;9.932;2023-06-19T02:15:27;8.60;;;8.00;;
836;SDS011;400;53.550;9.932;2023-06-19T02:17:54;8.27;;;7.77;;
836;SDS011;400;53.550;9.932;2023-06-19T02:20:21;8.00;;;7.50;;
836;SDS011;400;53.550;9.932;2023-06-19T02:22:49;9.10;;;8.20;;
836;SDS011;400;53.550;9.932;2023-06-19T02:25:16;8.43;;;7.93;;
836;SDS011;400;53.550;9.932;2023-06-19T02:27:43;8.13;;;7.53;;
836;SDS011;400;53.550;9.932;2023-06-19T02:30:10;8.23;;;7.73;;
836;SDS011;400;53.550;9.932;2023-06-19T02:32:39;9.30;;;8.60;;
836;SDS011;400;53.550;9.932;2023-06-19T02:35:07;9.50;;;8.90;;
836;SDS011;400;53.550;9.932;2023-06-19T02:37:35;9.20;;;8.57;;
836;SDS011;400;53.550;9.932;2023-06-19T02:40:03;8.50;;;7.90;;
836;SDS011;400;53.550;9.932;2023-06-19T02:42:31;8.83;;;8.33;;
836;SDS011;400;53.550;9.932;2023-06-19T02:44:58;8.77;;;8.17;;
836;SDS011;400;53.550;9.932;2023-06-19T02:47:28;8.97;;;8.33;;
836;SDS011;400;53.550;9.932;2023-06-19T02:49:57;9.10;;;8.50;;
836;SDS011;400;53.550;9.932;2023-06-19T02:52:25;8.70;;;8.20;;
836;SDS011;400;53.550;9.932;2023-06-19T02:54:51;8.77;;;8.17;;
836;SDS011;400;53.550;9.932;2023-06-19T02:57:18;9.07;;;8.47;;
836;SDS011;400;53.550;9.932;2023-06-19T02:59:45;8.90;;;8.20;;
836;SDS011;400;53.550;9.932;2023-06-19T03:02:12;9.70;;;9.00;;
836;SDS011;400;53.550;9.932;2023-06-19T03:04:39;9.40;;;8.50;;
836;SDS011;400;53.550;9.932;2023-06-19T03:07:08;9.23;;;8.53;;
836;SDS011;400;53.550;9.932;2023-06-19T03:09:35;9.80;;;9.00;;
836;SDS011;400;53.550;9.932;2023-06-19T03:12:03;9.20;;;8.60;;
836;SDS011;400;53.550;9.932;2023-06-19T03:14:30;9.27;;;8.50;;
836;SDS011;400;53.550;9.932;2023-06-19T03:16:57;8.60;;;8.00;;
836;SDS011;400;53.550;9.932;2023-06-19T03:19:23;9.00;;;8.40;;
836;SDS011;400;53.550;9.932;2023-06-19T03:21:50;9.43;;;8.80;;
836;SDS011;400;53.550;9.932;2023-06-19T03:24:19;8.85;;;8.25;;
836;SDS011;400;53.550;9.932;2023-06-19T03:26:45;12.60;;;9.90;;
836;SDS011;400;53.550;9.932;2023-06-19T03:29:12;10.37;;;9.67;;
836;SDS011;400;53.550;9.932;2023-06-19T03:31:39;9.73;;;9.10;;
836;SDS011;400;53.550;9.932;2023-06-19T03:34:06;9.70;;;9.00;;
836;SDS011;400;53.550;9.932;2023-06-19T03:36:34;10.17;;;9.47;;
836;SDS011;400;53.550;9.932;2023-06-19T03:39:01;10.33;;;9.63;;
836;SDS011;400;53.550;9.932;2023-06-19T03:41:29;10.20;;;9.40;;
836;SDS011;400;53.550;9.932;2023-06-19T03:43:56;11.63;;;10.57;;
836;SDS011;400;53.550;9.932;2023-06-19T03:46:23;11.20;;;10.37;;
836;SDS011;400;53.550;9.932;2023-06-19T03:48:50;12.20;;;11.00;;
836;SDS011;400;53.550;9.932;2023-06-19T03:51:17;10.33;;;9.60;;
836;SDS011;400;53.550;9.932;2023-06-19T03:53:43;11.50;;;10.63;;
836;SDS011;400;53.550;9.932;2023-06-19T03:56:10;9.50;;;8.80;;
836;SDS011;400;53.550;9.932;2023-06-19T03:58:38;11.03;;;10.33;;
836;SDS011;400;53.550;9.932;2023-06-19T04:01:05;10.40;;;9.67;;
836;SDS011;400;53.550;9.932;2023-06-19T04:03:32;10.30;;;9.60;;
836;SDS011;400;53.550;9.932;2023-06-19T04:05:59;10.40;;;9.70;;
836;SDS011;400;53.550;9.932;2023-06-19T04:08:28;11.73;;;10.70;;
836;SDS011;400;53.550;9.932;2023-06-19T04:10:55;10.80;;;10.03;;
836;SDS011;400;53.550;9.932;2023-06-19T04:13:21;11.33;;;10.43;;
836;SDS011;400;53.550;9.932;2023-06-19T04:15:52;10.07;;;9.37;;
836;SDS011;400;53.550;9.932;2023-06-19T04:18:19;11.47;;;10.60;;
836;SDS011;400;53.550;9.932;2023-06-19T04:20:46;10.37;;;9.77;;
836;SDS011;400;53.550;9.932;2023-06-19T04:23:12;9.93;;;9.23;;
836;SDS011;400;53.550;9.932;2023-06-19T04:25:39;11.53;;;10.80;;
836;SDS011;400;53.550;9.932;2023-06-19T04:28:06;11.73;;;10.77;;
836;SDS011;400;53.550;9.932;2023-06-19T04:30:33;10.50;;;9.70;;
836;SDS011;400;53.550;9.932;2023-06-19T04:33:03;10.30;;;9.67;;
836;SDS011;400;53.550;9.932;2023-06-19T04:35:31;9.63;;;9.03;;
836;SDS011;400;53.550;9.932;2023-06-19T04:37:57;10.20;;;9.53;;
836;SDS011;400;53.550;9.932;2023-06-19T04:40:26;11.73;;;10.70;;
836;SDS011;400;53.550;9.932;2023-06-19T04:42:54;11.83;;;10.77;;
836;SDS011;400;53.550;9.932;2023-06-19T04:45:21;10.77;;;10.07;;
836;SDS011;400;53.550;9.932;2023-06-19T04:47:47;11.30;;;10.30;;
836;SDS011;400;53.550;9.932;2023-06-19T04:50:15;11.77;;;10.97;;
836;SDS011;400;53.550;9.932;2023-06-19T04:52:43;12.10;;;11.03;;
836;SDS011;400;53.550;9.932;2023-06-19T04:55:09;10.70;;;10.00;;
836;SDS011;400;53.550;9.932;2023-06-19T04:57:36;10.50;;;9.80;;
836;SDS011;400;53.550;9.932;2023-06-19T05:00:06;11.33;;;10.33;;
836;SDS011;400;53.550;9.932;2023-06-19T05:02:35;10.37;;;9.53;;
836;SDS011;400;53.550;9.932;2023-06-19T05:05:02;11.27;;;10.47;;
836;SDS011;400;53.550;9.932;2023-06-19T05:07:30;11.00;;;10.20;;
836;SDS011;400;53.550;9.932;2023-06-19T05:09:57;13.80;;;12.47;;
836;SDS011;400;53.550;9.932;2023-06-19T05:12:25;11.90;;;10.90;;
836;SDS011;400;53.550;9.932;2023-06-19T05:14:52;12.53;;;11.30;;
836;SDS011;400;53.550;9.932;2023-06-19T05:17:19;11.47;;;10.67;;
836;SDS011;400;53.550;9.932;2023-06-19T05:19:45;12.60;;;11.40;;
836;SDS011;400;53.550;9.932;2023-06-19T05:22:12;12.77;;;11.60;;
836;SDS011;400;53.550;9.932;2023-06-19T05:24:42;11.50;;;10.73;;
836;SDS011;400;53.550;9.932;2023-06-19T05:27:13;12.57;;;11.57;;
836;SDS011;400;53.550;9.932;2023-06-19T16:09:29;8.20;;;7.60;;
836;SDS011;400;53.550;9.932;2023-06-19T16:11:55;7.00;;;6.50;;
836;SDS011;400;53.550;9.932;2023-06-19T16:14:22;6.43;;;6.00;;
836;SDS011;400;53.550;9.932;2023-06-19T16:16:50;6.53;;;6.10;;
836;SDS011;400;53.550;9.932;2023-06-19T16:19:27;6.63;;;6.23;;
836;SDS011;400;53.550;9.932;2023-06-19T16:22:05;5.53;;;5.23;;
836;SDS011;400;53.550;9.932;2023-06-19T16:24:33;5.50;;;5.20;;
836;SDS011;400;53.550;9.932;2023-06-19T16:27:00;5.57;;;5.27;;
836;SDS011;400;53.550;9.932;2023-06-19T16:29:27;5.80;;;5.27;;
836;SDS011;400;53.550;9.932;2023-06-19T16:31:54;10.20;;;6.20;;
836;SDS011;400;53.550;9.932;2023-06-19T16:34:23;5.93;;;4.87;;
836;SDS011;400;53.550;9.932;2023-06-19T16:36:51;5.27;;;4.87;;
836;SDS011;400;53.550;9.932;2023-06-19T16:39:21;5.30;;;5.00;;
836;SDS011;400;53.550;9.932;2023-06-19T16:41:48;4.80;;;4.60;;
836;SDS011;400;53.550;9.932;2023-06-19T16:44:16;5.67;;;5.10;;
836;SDS011;400;53.550;9.932;2023-06-19T16:46:46;5.50;;;5.20;;
836;SDS011;400;53.550;9.932;2023-06-19T16:49:19;5.23;;;4.93;;
836;SDS011;400;53.550;9.932;2023-06-19T16:51:48;5.57;;;5.27;;
836;SDS011;400;53.550;9.932;2023-06-19T16:54:16;4.97;;;4.70;;
836;SDS011;400;53.550;9.932;2023-06-19T16:56:44;5.50;;;4.70;;
836;SDS011;400;53.550;9.932;2023-06-19T16:59:13;4.67;;;4.47;;
836;SDS011;400;53.550;9.932;2023-06-19T17:01:43;5.20;;;4.90;;
836;SDS011;400;53.550;9.932;2023-06-19T17:04:19;4.63;;;4.33;;
836;SDS011;400;53.550;9.932;2023-06-19T17:06:46;4.10;;;3.80;;
836;SDS011;400;53.550;9.932;2023-06-19T17:09:15;4.40;;;4.20;;
836;SDS011;400;53.550;9.932;2023-06-19T17:11:41;4.93;;;4.63;;
836;SDS011;400;53.550;9.932;2023-06-19T17:14:08;4.30;;;4.00;;
836;SDS011;400;53.550;9.932;2023-06-19T17:16:35;4.60;;;4.30;;
836;SDS011;400;53.550;9.932;2023-06-19T17:19:04;7.27;;;6.83;;
836;SDS011;400;53.550;9.932;2023-06-19T17:21:31;6.20;;;5.80;;
836;SDS011;400;53.550;9.932;2023-06-19T17:23:58;4.90;;;4.60;;
836;SDS011;400;53.550;9.932;2023-06-19T17:26:28;6.27;;;5.80;;
836;SDS011;400;53.550;9.932;2023-06-19T17:28:57;5.83;;;5.43;;
836;SDS011;400;53.550;9.932;2023-06-19T17:31:30;6.70;;;6.30;;
836;SDS011;400;53.550;9.932;2023-06-19T17:34:00;5.57;;;5.27;;
836;SDS011;400;53.550;9.932;2023-06-19T17:36:32;5.37;;;5.07;;
836;SDS011;400;53.550;9.932;2023-06-19T17:39:02;5.50;;;5.20;;
836;SDS011;400;53.550;9.932;2023-06-19T17:41:35;4.40;;;4.20;;
836;SDS011;400;53.550;9.932;2023-06-19T17:44:02;5.17;;;4.87;;
836;SDS011;400;53.550;9.932;2023-06-19T17:46:30;6.00;;;5.67;;
836;SDS011;400;53.550;9.932;2023-06-19T17:48:58;6.47;;;5.97;;
836;SDS011;400;53.550;9.932;2023-06-19T17:51:26;6.43;;;6.13;;
836;SDS011;400;53.550;9.932;2023-06-19T17:53:53;6.50;;;6.00;;
836;SDS011;400;53.550;9.932;2023-06-19T17:56:23;8.30;;;6.93;;
836;SDS011;400;53.550;9.932;2023-06-19T17:58:51;7.10;;;6.60;;
836;SDS011;400;53.550;9.932;2023-06-19T18:01:18;6.87;;;6.37;;
836;SDS011;400;53.550;9.932;2023-06-19T18:03:46;7.70;;;7.20;;
836;SDS011;400;53.550;9.932;2023-06-19T18:06:14;8.00;;;7.40;;
836;SDS011;400;53.550;9.932;2023-06-19T18:08:42;8.27;;;7.67;;
836;SDS011;400;53.550;9.932;2023-06-19T18:11:11;6.60;;;6.20;;
836;SDS011;400;53.550;9.932;2023-06-19T18:13:39;7.63;;;7.13;;
836;SDS011;400;53.550;9.932;2023-06-19T18:16:08;7.90;;;7.20;;
836;SDS011;400;53.550;9.932;2023-06-19T18:18:36;7.93;;;7.43;;
836;SDS011;400;53.550;9.932;2023-06-19T18:21:03;7.70;;;7.10;;
836;SDS011;400;53.550;9.932;2023-06-19T18:23:30;7.50;;;7.10;;
836;SDS011;400;53.550;9.932;2023-06-19T18:25:57;7.00;;;6.50;;
836;SDS011;400;53.550;9.932;2023-06-19T18:28:24;7.13;;;6.73;;
836;SDS011;400;53.550;9.932;2023-06-19T18:30:52;6.90;;;6.40;;
836;SDS011;400;53.550;9.932;2023-06-19T18:33:20;8.10;;;7.60;;
836;SDS011;400;53.550;9.932;2023-06-19T18:35:48;7.40;;;6.80;;
836;SDS011;400;53.550;9.932;2023-06-19T18:38:22;6.80;;;6.30;;
836;SDS011;400;53.550;9.932;2023-06-19T18:40:51;7.17;;;6.63;;
836;SDS011;400;53.550;9.932;2023-06-19T18:43:21;6.83;;;6.43;;
836;SDS011;400;53.550;9.932;2023-06-19T18:45:52;8.53;;;7.20;;
836;SDS011;400;53.550;9.932;2023-06-19T18:48:25;6.70;;;6.20;;
836;SDS011;400;53.550;9.932;2023-06-19T18:50:56;6.73;;;6.23;;
836;SDS011;400;53.550;9.932;2023-06-19T18:53:31;6.80;;;6.30;;
836;SDS011;400;53.550;9.932;2023-06-19T18:56:14;5.93;;;5.53;;
836;SDS011;400;53.550;9.932;2023-06-19T18:58:45;6.90;;;6.50;;
836;SDS011;400;53.550;9.932;2023-06-19T19:01:14;15.47;;;14.27;;
836;SDS011;400;53.550;9.932;2023-06-19T19:03:43;10.67;;;9.87;;
836;SDS011;400;53.550;9.932;2023-06-19T19:06:11;21.33;;;19.63;;
836;SDS011;400;53.550;9.932;2023-06-19T19:08:41;10.60;;;9.70;;
836;SDS011;400;53.550;9.932;2023-06-19T19:11:21;8.30;;;7.60;;
836;SDS011;400;53.550;9.932;2023-06-19T19:13:50;7.10;;;6.43;;
836;SDS011;400;53.550;9.932;2023-06-19T19:16:18;7.20;;;6.63;;
836;SDS011;400;53.550;9.932;2023-06-19T19:18:48;7.43;;;6.70;;
836;SDS011;400;53.550;9.932;2023-06-19T19:21:20;8.10;;;7.40;;
836;SDS011;400;53.550;9.932;2023-06-19T19:23:51;7.20;;;6.70;;
836;SDS011;400;53.550;9.932;2023-06-19T19:26:23;8.00;;;7.40;;
836;SDS011;400;53.550;9.932;2023-06-19T19:28:53;8.43;;;7.70;;
836;SDS011;400;53.550;9.932;2023-06-19T19:31:31;8.67;;;7.83;;
836;SDS011;400;53.550;9.932;2023-06-19T19:34:03;8.10;;;7.60;;
836;SDS011;400;53.550;9.932;2023-06-19T19:36:35;7.50;;;6.90;;
836;SDS011;400;53.550;9.932;2023-06-19T19:39:02;9.17;;;8.40;;
836;SDS011;400;53.550;9.932;2023-06-19T19:41:29;9.30;;;8.53;;
836;SDS011;400;53.550;9.932;2023-06-19T19:43:58;9.87;;;8.90;;
836;SDS011;400;53.550;9.932;2023-06-19T19:46:31;9.27;;;8.57;;
836;SDS011;400;53.550;9.932;2023-06-19T19:48:59;9.90;;;9.10;;
836;SDS011;400;53.550;9.932;2023-06-19T19:51:38;9.40;;;8.43;;
836;SDS011;400;53.550;9.932;2023-06-19T19:54:08;9.97;;;9.23;;
836;SDS011;400;53.550;9.932;2023-06-19T19:56:36;9.87;;;9.07;;
836;SDS011;400;53.550;9.932;2023-06-19T19:59:04;11.10;;;8.60;;
836;SDS011;400;53.550;9.932;2023-06-19T20:01:31;10.80;;;9.70;;
836;SDS011;400;53.550;9.932;2023-06-19T20:04:02;9.60;;;8.83;;
836;SDS011;400;53.550;9.932;2023-06-19T20:06:32;9.67;;;8.97;;
836;SDS011;400;53.550;9.932;2023-06-19T20:09:01;10.30;;;9.30;;
836;SDS011;400;53.550;9.932;2023-06-19T20:11:30;9.97;;;9.07;;
836;SDS011;400;53.550;9.932;2023-06-19T20:14:00;9.70;;;8.90;;
836;SDS011;400;53.550;9.932;2023-06-19T20:16:29;10.80;;;9.93;;
836;SDS011;400;53.550;9.932;2023-06-19T20:18:58;10.70;;;9.80;;
836;SDS011;400;53.550;9.932;2023-06-19T20:21:26;11.57;;;10.60;;
836;SDS011;400;53.550;9.932;2023-06-19T20:23:54;10.97;;;10.07;;
836;SDS011;400;53.550;9.932;2023-06-19T20:26:25;11.60;;;10.70;;
836;SDS011;400;53.550;9.932;2023-06-19T20:28:52;12.57;;;11.57;;
836;SDS011;400;53.550;9.932;2023-06-19T20:31:20;12.00;;;11.07;;
836;SDS011;400;53.550;9.932;2023-06-19T20:33:47;12.53;;;11.37;;
836;SDS011;400;53.550;9.932;2023-06-19T20:36:14;11.97;;;10.93;;
836;SDS011;400;53.550;9.932;2023-06-19T20:38:40;12.47;;;11.27;;
836;SDS011;400;53.550;9.932;2023-06-19T20:41:10;11.87;;;10.77;;
836;SDS011;400;53.550;9.932;2023-06-19T20:43:43;13.00;;;11.90;;
836;SDS011;400;53.550;9.932;2023-06-19T20:46:10;12.53;;;11.63;;
836;SDS011;400;53.550;9.932;2023-06-19T20:48:38;12.40;;;11.33;;
836;SDS011;400;53.550;9.932;2023-06-19T20:51:08;11.37;;;10.50;;
836;SDS011;400;53.550;9.932;2023-06-19T20:53:39;11.57;;;10.60;;
836;SDS011;400;53.550;9.932;2023-06-19T20:56:06;12.37;;;11.27;;
836;SDS011;400;53.550;9.932;2023-06-19T20:58:33;12.93;;;11.67;;
836;SDS011;400;53.550;9.932;2023-06-19T21:01:01;12.13;;;11.13;;
836;SDS011;400;53.550;9.932;2023-06-19T21:03:29;11.57;;;10.60;;
836;SDS011;400;53.550;9.932;2023-06-19T21:05:56;13.80;;;12.40;;
836;SDS011;400;53.550;9.932;2023-06-19T21:08:24;12.13;;;10.90;;
836;SDS011;400;53.550;9.932;2023-06-19T21:10:55;13.40;;;12.20;;
836;SDS011;400;53.550;9.932;2023-06-19T21:13:23;19.80;;;12.80;;
836;SDS011;400;53.550;9.932;2023-06-19T21:15:50;12.50;;;11.53;;
836;SDS011;400;53.550;9.932;2023-06-19T21:18:20;13.47;;;11.60;;
836;SDS011;400;53.550;9.932;2023-06-19T21:20:48;13.30;;;12.10;;
836;SDS011;400;53.550;9.932;2023-06-19T21:23:20;14.53;;;12.73;;
836;SDS011;400;53.550;9.932;2023-06-19T21:25:49;13.87;;;12.77;;
836;SDS011;400;53.550;9.932;2023-06-19T21:28:18;13.90;;;12.57;;
836;SDS011;400;53.550;9.932;2023-06-19T21:30:47;14.10;;;12.90;;
836;SDS011;400;53.550;9.932;2023-06-19T21:33:17;14.97;;;13.63;;
836;SDS011;400;53.550;9.932;2023-06-19T21:35:47;13.60;;;12.50;;
836;SDS011;400;53.550;9.932;2023-06-19T21:38:13;13.60;;;12.20;;
836;SDS011;400;53.550;9.932;2023-06-19T21:40:40;13.00;;;11.90;;
836;SDS011;400;53.550;9.932;2023-06-19T21:43:09;13.63;;;12.63;;
836;SDS011;400;53.550;9.932;2023-06-19T21:45:36;13.83;;;12.60;;
836;SDS011;400;53.550;9.932;2023-06-19T21:48:03;12.07;;;10.87;;
836;SDS011;400;53.550;9.932;2023-06-19T21:50:30;11.97;;;11.13;;
836;SDS011;400;53.550;9.932;2023-06-19T21:52:59;11.83;;;10.83;;
836;SDS011;400;53.550;9.932;2023-06-19T21:55:26;12.37;;;11.37;;
836;SDS011;400;53.550;9.932;2023-06-19T21:57:55;11.77;;;10.77;;
836;SDS011;400;53.550;9.932;2023-06-19T22:00:24;12.13;;;10.93;;
836;SDS011;400;53.550;9.932;2023-06-19T22:02:51;11.50;;;10.43;;
836;SDS011;400;53.550;9.932;2023-06-19T22:05:18;11.73;;;10.83;;
836;SDS011;400;53.550;9.932;2023-06-19T22:07:45;13.60;;;12.30;;
836;SDS011;400;53.550;9.932;2023-06-19T22:10:13;11.30;;;10.50;;
836;SDS011;400;53.550;9.932;2023-06-19T22:12:40;11.47;;;10.47;;
836;SDS011;400;53.550;9.932;2023-06-19T22:15:07;14.57;;;13.33;;
836;SDS011;400;53.550;9.932;2023-06-19T22:17:37;11.53;;;10.33;;
836;SDS011;400;53.550;9.932;2023-06-19T22:20:10;11.30;;;10.40;;
836;SDS011;400;53.550;9.932;2023-06-19T22:22:38;11.70;;;10.70;;
836;SDS011;400;53.550;9.932;2023-06-19T22:25:05;11.73;;;10.87;;
836;SDS011;400;53.550;9.932;2023-06-19T22:27:34;12.43;;;11.37;;
836;SDS011;400;53.550;9.932;2023-06-19T22:30:02;11.93;;;10.90;;
836;SDS011;400;53.550;9.932;2023-06-19T22:32:29;12.50;;;11.57;;
836;SDS011;400;53.550;9.932;2023-06-19T22:34:56;10.60;;;9.80;;
836;SDS011;400;53.550;9.932;2023-06-19T22:37:23;11.87;;;11.03;;
836;SDS011;400;53.550;9.932;2023-06-19T22:39:50;11.15;;;10.15;;
836;SDS011;400;53.550;9.932;2023-06-19T22:42:17;10.67;;;9.87;;
836;SDS011;400;53.550;9.932;2023-06-19T22:44:45;11.70;;;10.70;;
836;SDS011;400;53.550;9.932;2023-06-19T22:47:12;11.20;;;10.33;;
836;SDS011;400;53.550;9.932;2023-06-19T22:49:39;10.90;;;10.00;;
836;SDS011;400;53.550;9.932;2023-06-19T22:52:07;12.73;;;11.73;;
836;SDS011;400;53.550;9.932;2023-06-19T22:54:34;11.37;;;10.13;;
836;SDS011;400;53.550;9.932;2023-06-19T22:57:01;12.03;;;10.93;;
836;SDS011;400;53.550;9.932;2023-06-19T22:59:28;11.70;;;10.63;;
836;SDS011;400;53.550;9.932;2023-06-19T23:01:56;11.00;;;10.10;;
836;SDS011;400;53.550;9.932;2023-06-19T23:04:23;11.43;;;10.53;;
836;SDS011;400;53.550;9.932;2023-06-19T23:06:50;10.67;;;9.97;;
836;SDS011;400;53.550;9.932;2023-06-19T23:09:17;13.03;;;11.93;;
836;SDS011;400;53.550;9.932;2023-06-19T23:11:45;13.50;;;12.20;;
836;SDS011;400;53.550;9.932;2023-06-19T23:14:13;12.80;;;11.70;;
836;SDS011;400;53.550;9.932;2023-06-19T23:16:41;11.73;;;10.87;;
836;SDS011;400;53.550;9.932;2023-06-19T23:19:09;11.53;;;10.60;;
836;SDS011;400;53.550;9.932;2023-06-19T23:21:36;11.23;;;10.43;;
836;SDS011;400;53.550;9.932;2023-06-19T23:24:04;13.10;;;11.83;;
836;SDS011;400;53.550;9.932;2023-06-19T23:26:31;12.27;;;11.10;;
836;SDS011;400;53.550;9.932;2023-06-19T23:29:01;11.83;;;10.83;;
836;SDS011;400;53.550;9.932;2023-06-19T23:31:28;12.07;;;11.17;;
836;SDS011;400;53.550;9.932;2023-06-19T23:33:56;12.70;;;11.70;;
836;SDS011;400;53.550;9.932;2023-06-19T23:36:26;12.17;;;11.17;;
836;SDS011;400;53.550;9.932;2023-06-19T23:38:54;11.67;;;10.87;;
836;SDS011;400;53.550;9.932;2023-06-19T23:41:21;12.40;;;11.40;;
836;SDS011;400;53.550;9.932;2023-06-19T23:43:48;12.13;;;11.13;;
836;SDS011;400;53.550;9.932;2023-06-19T23:46:15;11.13;;;10.23;;
836;SDS011;400;53.550;9.932;2023-06-19T23:48:42;11.57;;;10.77;;
836;SDS011;400;53.550;9.932;2023-06-19T23:51:09;11.63;;;10.73;;
836;SDS011;400;53.550;9.932;2023-06-19T23:53:37;10.87;;;10.07;;
836;SDS011;400;53.550;9.932;2023-06-19T23:56:04;11.13;;;10.13;;
836;SDS011;400;53.550;9.932;2023-06-19T23:58:31;11.97;;;10.97;;
